Etusivu
METAR-TAF:

METAR-TAF

Lentoasemat :

Matsumoto, Japani

Leveyspiiri: 36-10N, Pituuspiiri: 137-56E, korkeus merenpinnasta: 668 m

Tämänhetkinen sää

Tämä raportti tehtiin 5 tuntia ja 31 minuuttia sitten, kello 07.00 UTC
Tuuli 8 kn etelästä/kaakosta
Lämpötila 16°C
Kosteus 59%
Ilmanpaine 1015 hPa
Näkyvyys 10 km tai enemmän
Muutamia pilviä 4500 ft:n korkeudessa
Hajanaisia pilviä 6000 ft:n korkeudessa
Hajonneita pilviä 11000 ft:n korkeudessa

METAR: RJAF 130700Z 15008KT 9999 FEW045 SCT060 BKN110 16/08 Q1015

Aika: 21:31 (12:31 UTC)


TAF: puuttuu

Säähavainnot ja -ennusteet yli 4000 lentoasemalta (METAR- ja TAF-raportit).

Käytössä olevat sääasemat on merkitty karttaan keltaisilla ja punaisilla pisteillä.

Aseta hiiri pisteen päälle nähdäksesi sääaseman nimen.

Klikkaa sitten nähdäksesi säähavainnot ja -ennusteet.

Kartan vaihtaminen: klikkaa mustalla rastilla varustettuja vihreitä pisteitä, niin voit zoomata sisään; viivalla varustettua vihreää pistettä, niin voit zoomata ulos tai vihreitä nuolia, niin pääset viereisille kartoille.


METAR-TAF: